createdAt,value
2023-11-07T00:02:24.974Z,4.86
2023-11-07T00:04:52.833Z,4.84
2023-11-07T00:07:20.186Z,4.83
2023-11-07T00:09:47.499Z,4.79
2023-11-07T00:12:14.837Z,4.75
2023-11-07T00:14:42.160Z,4.71
2023-11-07T00:17:10.420Z,4.66
2023-11-07T00:19:37.934Z,4.59
2023-11-07T00:22:05.647Z,4.52
2023-11-07T00:24:33.015Z,4.44
2023-11-07T00:27:00.699Z,4.38
2023-11-07T00:29:29.625Z,4.32
2023-11-07T00:32:15.562Z,4.28
2023-11-07T00:34:43.255Z,4.26
2023-11-07T00:37:10.977Z,4.25
2023-11-07T00:39:38.300Z,4.22
2023-11-07T00:42:06.291Z,4.20
2023-11-07T00:44:33.789Z,4.16
2023-11-07T00:47:01.456Z,4.12
2023-11-07T00:49:29.290Z,4.09
2023-11-07T00:51:56.850Z,4.07
2023-11-07T00:54:24.604Z,4.04
2023-11-07T00:56:51.919Z,4.01
2023-11-07T00:59:19.634Z,3.98
2023-11-07T01:01:47.049Z,3.93
2023-11-07T01:04:14.524Z,3.87
2023-11-07T01:06:42.065Z,3.82
2023-11-07T01:09:13.166Z,3.78
2023-11-07T01:11:41.428Z,3.75
2023-11-07T01:14:09.180Z,3.71
2023-11-07T01:16:37.657Z,3.69
2023-11-07T01:19:05.177Z,3.67
2023-11-07T01:21:32.772Z,3.65
2023-11-07T01:24:00.245Z,3.59
2023-11-07T01:26:27.811Z,3.56
2023-11-07T01:28:55.257Z,3.57
2023-11-07T01:31:23.327Z,3.56
2023-11-07T01:33:50.932Z,3.56
2023-11-07T01:36:18.359Z,3.54
2023-11-07T01:38:45.856Z,3.52
2023-11-07T01:41:13.228Z,3.49
2023-11-07T01:43:40.940Z,3.47
2023-11-07T01:46:09.065Z,3.46
2023-11-07T01:48:37.625Z,3.43
2023-11-07T01:51:05.677Z,3.39
2023-11-07T01:53:33.586Z,3.38
2023-11-07T01:56:01.086Z,3.36
2023-11-07T01:58:28.856Z,3.34
2023-11-07T02:00:56.389Z,3.31
2023-11-07T02:03:25.746Z,3.28
2023-11-07T02:05:53.346Z,3.23
2023-11-07T02:08:24.388Z,3.19
2023-11-07T02:10:51.930Z,3.15
2023-11-07T02:13:19.540Z,3.09
2023-11-07T02:15:46.905Z,3.04
2023-11-07T02:18:14.454Z,2.99
2023-11-07T02:20:43.169Z,2.96
2023-11-07T02:23:30.512Z,2.92
2023-11-07T02:25:58.035Z,2.88
2023-11-07T02:28:25.656Z,2.87
2023-11-07T02:30:54.046Z,2.87
2023-11-07T02:33:22.182Z,2.87
2023-11-07T02:35:49.676Z,2.86
2023-11-07T02:38:20.697Z,2.85
2023-11-07T02:40:50.436Z,2.83
2023-11-07T02:43:17.952Z,2.81
2023-11-07T02:45:45.413Z,2.78
2023-11-07T02:48:12.878Z,2.72
2023-11-07T02:50:41.509Z,2.65
2023-11-07T02:53:08.961Z,2.62
2023-11-07T02:55:36.748Z,2.61
2023-11-07T02:58:04.078Z,2.59
2023-11-07T03:00:31.405Z,2.58
2023-11-07T03:02:59.882Z,2.59
2023-11-07T03:05:27.554Z,2.60
2023-11-07T03:07:54.989Z,2.61
2023-11-07T03:10:22.377Z,2.63
2023-11-07T03:12:49.701Z,2.65
2023-11-07T03:15:17.070Z,2.67
2023-11-07T03:17:44.969Z,2.68
2023-11-07T03:20:13.015Z,2.69
2023-11-07T03:22:40.449Z,2.71
2023-11-07T03:25:08.431Z,2.72
2023-11-07T03:27:38.366Z,2.71
2023-11-07T03:30:07.216Z,2.69
2023-11-07T03:32:34.769Z,2.68
2023-11-07T03:35:02.750Z,2.67
2023-11-07T03:37:31.036Z,2.66
2023-11-07T03:39:58.444Z,2.65
2023-11-07T03:42:26.213Z,2.62
2023-11-07T03:44:53.599Z,2.59
2023-11-07T03:47:21.406Z,2.58
2023-11-07T03:49:48.744Z,2.56
2023-11-07T03:52:17.402Z,2.55
2023-11-07T03:54:44.877Z,2.53
2023-11-07T03:57:12.232Z,2.50
2023-11-07T03:59:40.149Z,2.48
2023-11-07T04:02:07.647Z,2.48
2023-11-07T04:04:35.445Z,2.47
2023-11-07T04:07:02.788Z,2.44
2023-11-07T04:09:30.539Z,2.40
2023-11-07T04:11:57.940Z,2.38
2023-11-07T04:14:25.305Z,2.37
2023-11-07T04:16:52.717Z,2.35
2023-11-07T04:19:20.305Z,2.33
2023-11-07T04:21:47.682Z,2.31
2023-11-07T04:24:16.763Z,2.29
2023-11-07T04:26:45.028Z,2.26
2023-11-07T04:29:12.947Z,2.21
2023-11-07T04:31:41.332Z,2.15
2023-11-07T04:34:11.406Z,2.07
2023-11-07T04:36:43.314Z,1.99
2023-11-07T04:39:12.383Z,1.94
2023-11-07T04:41:40.134Z,1.90
2023-11-07T04:44:07.455Z,1.88
2023-11-07T04:46:40.360Z,1.86
2023-11-07T04:49:09.203Z,1.85
2023-11-07T04:51:37.807Z,1.85
2023-11-07T04:54:05.435Z,1.87
2023-11-07T04:56:33.897Z,1.89
2023-11-07T04:59:01.366Z,1.91
2023-11-07T05:01:28.752Z,1.92
2023-11-07T05:03:56.318Z,1.94
2023-11-07T05:06:24.912Z,1.95
2023-11-07T05:08:52.846Z,1.95
2023-11-07T05:11:20.346Z,1.94
2023-11-07T05:13:47.752Z,1.93
2023-11-07T05:16:15.167Z,1.92
2023-11-07T05:18:42.703Z,1.90
2023-11-07T05:21:10.162Z,1.86
2023-11-07T05:23:39.175Z,1.81
2023-11-07T05:26:07.504Z,1.78
2023-11-07T05:28:34.986Z,1.76
2023-11-07T05:31:02.368Z,1.76
2023-11-07T05:33:29.864Z,1.77
2023-11-07T05:35:57.874Z,1.75
2023-11-07T05:38:25.573Z,1.68
2023-11-07T05:40:53.045Z,1.60
2023-11-07T05:43:20.658Z,1.54
2023-11-07T05:45:48.085Z,1.51
2023-11-07T05:48:15.622Z,1.52
2023-11-07T05:50:43.851Z,1.55
2023-11-07T05:53:11.507Z,1.60
2023-11-07T05:55:38.859Z,1.64
2023-11-07T05:58:08.522Z,1.67
2023-11-07T06:00:36.100Z,1.72
2023-11-07T06:03:03.918Z,1.75
2023-11-07T06:05:33.230Z,1.77
2023-11-07T06:08:00.713Z,1.81
2023-11-07T06:10:28.302Z,1.83
2023-11-07T06:12:55.651Z,1.84
2023-11-07T06:15:23.410Z,1.86
2023-11-07T06:17:50.874Z,1.88
2023-11-07T06:20:19.942Z,1.91
2023-11-07T06:22:47.536Z,1.92
2023-11-07T06:25:19.864Z,1.90
2023-11-07T11:19:01.368Z,13.93
2023-11-07T11:21:53.921Z,14.02
2023-11-07T11:24:59.829Z,14.10
2023-11-07T11:27:31.389Z,14.19
2023-11-07T11:29:59.026Z,14.26
2023-11-07T11:32:28.391Z,14.33
2023-11-07T11:35:17.742Z,14.39
2023-11-07T11:38:14.626Z,14.41
2023-11-07T11:41:01.730Z,14.40
2023-11-07T11:43:33.709Z,14.39
2023-11-07T11:46:14.806Z,14.36
2023-11-07T11:48:51.591Z,14.33
2023-11-07T11:51:31.438Z,14.29
2023-11-07T11:54:00.542Z,14.26
2023-11-07T11:56:29.740Z,14.23
2023-11-07T11:59:08.024Z,14.20
2023-11-07T12:01:56.687Z,14.15
2023-11-07T12:04:40.125Z,14.12
2023-11-07T12:07:10.872Z,14.06
2023-11-07T12:09:48.846Z,14.01
2023-11-07T12:12:17.349Z,13.96
2023-11-07T12:14:59.124Z,13.90
2023-11-07T12:17:29.554Z,13.82
2023-11-07T12:20:06.913Z,13.75
2023-11-07T12:22:37.764Z,13.68
2023-11-07T12:25:18.804Z,13.61
2023-11-07T12:28:07.724Z,13.56
2023-11-07T12:30:35.819Z,13.55
2023-11-07T12:33:05.228Z,13.56
2023-11-07T12:35:32.995Z,13.58
2023-11-07T12:38:04.672Z,13.60
2023-11-07T12:40:32.609Z,13.63
2023-11-07T12:43:00.124Z,13.66
2023-11-07T12:45:35.270Z,13.68
2023-11-07T12:48:08.024Z,13.71
2023-11-07T12:50:48.314Z,13.73
2023-11-07T12:53:18.788Z,13.76
2023-11-07T12:55:53.082Z,13.77
2023-11-07T12:58:31.511Z,13.78
2023-11-07T13:01:00.717Z,13.77
2023-11-07T13:03:35.427Z,13.78
2023-11-07T13:06:10.950Z,13.82
2023-11-07T13:08:42.952Z,13.87
2023-11-07T13:11:17.348Z,13.91
2023-11-07T13:13:46.579Z,13.94
2023-11-07T13:16:14.403Z,13.96
2023-11-07T13:18:46.029Z,13.96
2023-11-07T13:21:13.893Z,13.95
2023-11-07T13:23:41.436Z,13.93
2023-11-07T13:26:09.120Z,13.92
2023-11-07T13:28:38.065Z,13.90
2023-11-07T13:31:06.391Z,13.88
2023-11-07T13:33:34.645Z,13.86
2023-11-07T13:36:02.330Z,13.83
2023-11-07T13:38:30.685Z,13.82
2023-11-07T13:40:58.422Z,13.81
2023-11-07T13:43:25.969Z,13.79
2023-11-07T13:45:55.190Z,13.78
2023-11-07T13:48:23.167Z,13.77
2023-11-07T13:50:52.351Z,13.75
2023-11-07T13:53:20.504Z,13.73
2023-11-07T13:55:48.197Z,13.70
2023-11-07T13:58:15.797Z,13.68
2023-11-07T14:00:43.437Z,13.64
2023-11-07T14:03:11.410Z,13.60
2023-11-07T14:05:38.996Z,13.54
2023-11-07T14:08:06.380Z,13.49
2023-11-07T14:10:34.734Z,13.43
2023-11-07T14:13:02.212Z,13.35
2023-11-07T14:15:34.152Z,13.29
2023-11-07T14:18:13.401Z,13.22
2023-11-07T14:20:53.067Z,13.16
2023-11-07T14:23:20.560Z,13.09
2023-11-07T14:25:48.982Z,13.02
2023-11-07T14:28:16.650Z,12.97
2023-11-07T14:30:47.391Z,12.90
2023-11-07T14:33:17.070Z,12.81
2023-11-07T14:35:45.656Z,12.72
2023-11-07T14:38:13.002Z,12.62
2023-11-07T14:40:40.411Z,12.52
2023-11-07T14:43:16.096Z,12.41
2023-11-07T14:45:45.809Z,12.29
2023-11-07T14:48:15.860Z,12.17
2023-11-07T14:50:44.551Z,12.05
2023-11-07T14:53:12.412Z,11.94
2023-11-07T14:55:40.426Z,11.83
2023-11-07T14:58:08.821Z,11.74
2023-11-07T15:00:42.861Z,11.64
2023-11-07T15:03:11.764Z,11.55
2023-11-07T15:05:41.075Z,11.46
2023-11-07T15:08:08.816Z,11.38
2023-11-07T15:10:36.774Z,11.30
2023-11-07T15:13:05.544Z,11.21
2023-11-07T15:15:34.645Z,11.13
2023-11-07T15:18:03.166Z,11.04
2023-11-07T15:20:32.839Z,10.95
2023-11-07T15:23:02.762Z,10.87
2023-11-07T15:25:35.481Z,10.81
2023-11-07T15:28:04.085Z,10.75
2023-11-07T15:30:32.929Z,10.69
2023-11-07T15:33:02.862Z,10.63
2023-11-07T15:35:37.182Z,10.56
2023-11-07T15:38:07.945Z,10.49
2023-11-07T15:40:36.627Z,10.42
2023-11-07T15:43:06.318Z,10.37
2023-11-07T15:45:34.962Z,10.32
2023-11-07T15:48:09.108Z,10.26
2023-11-07T15:50:37.894Z,10.20
2023-11-07T15:53:08.657Z,10.13
2023-11-07T15:55:38.327Z,10.08
2023-11-07T15:58:06.269Z,10.02
2023-11-07T16:00:34.704Z,9.94
2023-11-07T16:03:05.331Z,9.88
2023-11-07T16:05:36.637Z,9.82
2023-11-07T16:08:07.798Z,9.75
2023-11-07T16:10:36.240Z,9.68
2023-11-07T16:13:04.747Z,9.60
2023-11-07T16:15:32.721Z,9.54
2023-11-07T16:18:00.725Z,9.48
2023-11-07T16:20:28.339Z,9.41
2023-11-07T16:22:57.925Z,9.35
2023-11-07T16:25:25.587Z,9.28
2023-11-07T16:27:54.199Z,9.20
2023-11-07T16:30:22.716Z,9.11
2023-11-07T16:32:50.644Z,9.02
2023-11-07T16:35:18.368Z,8.93
2023-11-07T16:37:46.347Z,8.86
2023-11-07T16:40:18.260Z,8.80
2023-11-07T16:42:48.271Z,8.73
2023-11-07T16:45:16.548Z,8.68
2023-11-07T16:47:45.023Z,8.62
2023-11-07T16:50:16.619Z,8.57
2023-11-07T16:52:44.132Z,8.53
2023-11-07T16:55:15.153Z,8.46
2023-11-07T16:57:43.889Z,8.39
2023-11-07T17:00:13.957Z,8.29
2023-11-07T17:02:42.501Z,8.21
2023-11-07T17:05:16.890Z,8.13
2023-11-07T17:07:45.715Z,8.05
2023-11-07T17:10:13.388Z,7.96
2023-11-07T17:12:40.907Z,7.88
2023-11-07T17:15:11.425Z,7.82
2023-11-07T17:17:41.352Z,7.76
2023-11-07T17:20:09.715Z,7.71
2023-11-07T17:22:38.925Z,7.64
2023-11-07T17:25:08.107Z,7.58
2023-11-07T17:27:36.546Z,7.52
2023-11-07T17:30:05.516Z,7.46
2023-11-07T17:40:11.564Z,7.20
2023-11-07T17:42:40.148Z,7.14
2023-11-07T17:45:08.268Z,7.10
2023-11-07T17:47:35.875Z,7.05
2023-11-07T17:50:04.053Z,7.01
2023-11-07T17:52:31.615Z,6.98
2023-11-07T17:55:02.104Z,6.95
2023-11-07T17:57:30.037Z,6.90
2023-11-07T17:59:58.885Z,6.84
2023-11-07T18:02:27.842Z,6.78
2023-11-07T18:04:55.921Z,6.72
2023-11-07T18:07:23.700Z,6.66
2023-11-07T18:09:52.500Z,6.61
2023-11-07T18:12:21.136Z,6.58
2023-11-07T18:14:48.819Z,6.52
2023-11-07T18:17:16.389Z,6.48
2023-11-07T18:19:43.913Z,6.42
2023-11-07T18:22:11.537Z,6.35
2023-11-07T18:24:39.054Z,6.28
2023-11-07T18:27:06.772Z,6.22
2023-11-07T18:29:35.392Z,6.15
2023-11-07T18:32:04.729Z,6.10
2023-11-07T18:34:32.294Z,6.04
2023-11-07T18:37:03.678Z,5.99
2023-11-07T18:39:35.168Z,5.94
2023-11-07T18:42:04.542Z,5.89
2023-11-07T18:44:35.998Z,5.82
2023-11-07T18:47:04.044Z,5.76
2023-11-07T18:49:33.124Z,5.71
2023-11-07T18:52:01.210Z,5.66
2023-11-07T18:54:29.127Z,5.62
2023-11-07T18:56:58.818Z,5.57
2023-11-07T18:59:34.328Z,5.54
2023-11-07T19:02:06.944Z,5.50
2023-11-07T19:04:37.982Z,5.45
2023-11-07T19:07:07.344Z,5.41
2023-11-07T19:09:35.296Z,5.38
2023-11-07T19:12:03.256Z,5.35
2023-11-07T19:14:31.522Z,5.33
2023-11-07T19:16:59.440Z,5.31
2023-11-07T19:19:28.707Z,5.29
2023-11-07T19:21:59.588Z,5.27
2023-11-07T19:24:27.539Z,5.25
2023-11-07T19:26:55.398Z,5.25
2023-11-07T19:29:22.918Z,5.25
2023-11-07T19:31:51.708Z,5.22
2023-11-07T19:34:22.963Z,5.19
2023-11-07T19:36:56.870Z,5.18
2023-11-07T19:39:30.450Z,5.18
2023-11-07T19:42:03.089Z,5.19
2023-11-07T19:44:31.693Z,5.22
2023-11-07T19:46:59.249Z,5.25
2023-11-07T19:49:29.884Z,5.29
2023-11-07T19:51:59.450Z,5.30
2023-11-07T19:54:28.007Z,5.32
2023-11-07T19:56:55.814Z,5.33
2023-11-07T19:59:23.457Z,5.33
2023-11-07T20:01:50.963Z,5.33
2023-11-07T20:04:18.622Z,5.33
2023-11-07T20:06:48.188Z,5.35
2023-11-07T20:09:17.058Z,5.37
2023-11-07T20:11:44.674Z,5.40
2023-11-07T20:14:12.542Z,5.42
2023-11-07T20:16:40.254Z,5.42
2023-11-07T20:19:09.077Z,5.41
2023-11-07T20:21:36.874Z,5.40
2023-11-07T20:24:05.446Z,5.41
2023-11-07T20:26:32.814Z,5.43
2023-11-07T20:29:00.177Z,5.45
2023-11-07T20:31:27.848Z,5.47
2023-11-07T20:33:57.631Z,5.47
2023-11-07T20:36:25.239Z,5.48
2023-11-07T20:38:54.880Z,5.49
2023-11-07T20:41:23.111Z,5.50
2023-11-07T20:43:55.946Z,5.50
2023-11-07T20:46:33.284Z,5.50
2023-11-07T20:49:04.200Z,5.52
2023-11-07T20:51:33.269Z,5.54
2023-11-07T20:54:00.874Z,5.56
2023-11-07T20:56:30.753Z,5.59
2023-11-07T20:58:58.955Z,5.63
2023-11-07T21:01:29.384Z,5.66
2023-11-07T21:11:33.782Z,5.83
2023-11-07T21:14:01.410Z,5.83
2023-11-07T21:16:29.034Z,5.86
2023-11-07T21:18:58.889Z,5.88
2023-11-07T21:21:27.075Z,5.89
2023-11-07T21:23:54.769Z,5.91
2023-11-07T21:26:24.976Z,5.92
2023-11-07T21:28:53.722Z,5.93
2023-11-07T21:31:21.513Z,5.90
2023-11-07T21:33:48.985Z,5.87
2023-11-07T21:36:16.560Z,5.86
2023-11-07T21:38:44.717Z,5.84
2023-11-07T21:41:12.099Z,5.81
2023-11-07T21:43:39.457Z,5.76
2023-11-07T21:46:08.691Z,5.71
2023-11-07T21:48:36.258Z,5.67
2023-11-07T21:51:06.078Z,5.67
2023-11-07T21:53:33.483Z,5.66
2023-11-07T21:56:00.896Z,5.66
2023-11-07T21:58:28.238Z,5.65
2023-11-07T22:00:56.043Z,5.66
2023-11-07T22:03:23.790Z,5.68
2023-11-07T22:05:51.328Z,5.67
2023-11-07T22:08:18.693Z,5.72
2023-11-07T22:10:46.037Z,5.78
2023-11-07T22:13:13.519Z,5.84
2023-11-07T22:15:40.979Z,5.89
2023-11-07T22:18:10.140Z,5.93
2023-11-07T22:20:39.337Z,5.98
2023-11-07T22:23:06.782Z,6.01
2023-11-07T22:25:34.163Z,6.04
2023-11-07T22:28:01.531Z,6.07
2023-11-07T22:30:28.864Z,6.09
2023-11-07T22:32:56.287Z,6.11
2023-11-07T22:35:23.992Z,6.12
2023-11-07T22:37:51.767Z,6.15
2023-11-07T22:40:19.190Z,6.17
2023-11-07T22:42:46.862Z,6.22
2023-11-07T22:45:15.449Z,6.27
2023-11-07T22:47:46.345Z,6.30
2023-11-07T22:50:13.722Z,6.31
2023-11-07T22:52:41.115Z,6.32
2023-11-07T22:55:12.834Z,6.35
2023-11-07T22:57:40.401Z,6.38
2023-11-07T23:00:11.705Z,6.35
2023-11-07T23:02:39.380Z,6.29
2023-11-07T23:05:08.124Z,6.25
2023-11-07T23:07:35.631Z,6.23
2023-11-07T23:10:03.448Z,6.21
2023-11-07T23:12:30.830Z,6.20
2023-11-07T23:14:58.452Z,6.20
2023-11-07T23:17:25.769Z,6.21
2023-11-07T23:19:53.119Z,6.21
2023-11-07T23:22:20.966Z,6.22
2023-11-07T23:24:48.704Z,6.25
2023-11-07T23:27:16.141Z,6.29
2023-11-07T23:29:46.459Z,6.32
2023-11-07T23:32:13.788Z,6.39
2023-11-07T23:37:02.009Z,6.52
2023-11-07T23:39:30.383Z,6.56
2023-11-07T23:41:57.985Z,6.61
2023-11-07T23:44:27.677Z,6.65
2023-11-07T23:46:55.164Z,6.68
2023-11-07T23:49:22.761Z,6.71
2023-11-07T23:51:50.330Z,6.71
2023-11-07T23:54:17.709Z,6.73
2023-11-07T23:56:45.160Z,6.77
2023-11-07T23:59:12.482Z,6.82
